createdAt,value
2023-11-06T00:00:49.694Z,10.70
2023-11-06T00:03:17.271Z,10.60
2023-11-06T00:05:44.997Z,10.60
2023-11-06T00:08:12.545Z,10.60
2023-11-06T00:10:39.977Z,10.50
2023-11-06T00:13:07.496Z,10.40
2023-11-06T00:15:35.052Z,10.40
2023-11-06T00:18:02.506Z,10.30
2023-11-06T00:20:29.897Z,10.20
2023-11-06T00:22:57.262Z,10.20
2023-11-06T00:25:25.014Z,10.30
2023-11-06T00:27:52.368Z,10.30
2023-11-06T00:30:20.867Z,10.20
2023-11-06T00:32:48.476Z,10.20
2023-11-06T00:35:17.830Z,10.10
2023-11-06T00:37:45.314Z,10.20
2023-11-06T00:40:13.018Z,10.20
2023-11-06T00:42:40.462Z,10.40
2023-11-06T00:45:08.299Z,10.40
2023-11-06T00:47:35.715Z,10.50
2023-11-06T00:50:03.221Z,10.50
2023-11-06T00:52:30.645Z,10.40
2023-11-06T00:54:58.381Z,10.30
2023-11-06T00:57:25.701Z,10.30
2023-11-06T00:59:53.069Z,10.30
2023-11-06T01:02:20.483Z,10.30
2023-11-06T01:04:47.988Z,10.30
2023-11-06T01:07:16.088Z,10.30
2023-11-06T01:09:43.452Z,10.30
2023-11-06T01:27:01.394Z,10.40
2023-11-06T01:29:28.985Z,10.40
2023-11-06T01:31:56.367Z,10.40
2023-11-06T01:34:24.212Z,10.30
2023-11-06T01:36:51.570Z,10.30
2023-11-06T01:39:19.936Z,10.30
2023-11-06T01:41:48.203Z,10.20
2023-11-06T01:44:16.033Z,10.20
2023-11-06T01:46:43.537Z,10.20
2023-11-06T01:49:11.357Z,10.20
2023-11-06T01:51:41.441Z,10.20
2023-11-06T01:54:11.340Z,10.20
2023-11-06T01:56:39.677Z,10.10
2023-11-06T01:59:07.158Z,10.20
2023-11-06T02:01:39.292Z,10.20
2023-11-06T02:04:08.204Z,10.30
2023-11-06T02:06:35.841Z,10.30
2023-11-06T02:09:04.806Z,10.30
2023-11-06T02:11:32.362Z,10.40
2023-11-06T02:14:00.544Z,10.30
2023-11-06T02:16:30.033Z,10.30
2023-11-06T02:18:57.990Z,10.40
2023-11-06T02:21:25.422Z,10.40
2023-11-06T02:23:52.802Z,10.40
2023-11-06T02:26:20.185Z,10.50
2023-11-06T02:28:52.929Z,10.60
2023-11-06T02:31:20.474Z,10.60
2023-11-06T02:33:47.962Z,10.70
2023-11-06T02:36:15.641Z,10.90
2023-11-06T02:38:43.034Z,10.90
2023-11-06T02:41:12.471Z,11.00
2023-11-06T02:43:39.938Z,11.10
2023-11-06T02:46:07.547Z,11.10
2023-11-06T02:48:34.927Z,11.10
2023-11-06T02:51:02.258Z,11.10
2023-11-06T02:53:29.661Z,11.10
2023-11-06T02:55:57.387Z,11.20
2023-11-06T02:58:24.813Z,11.10
2023-11-06T03:00:52.187Z,11.10
2023-11-06T03:03:21.431Z,11.10
2023-11-06T03:05:49.126Z,11.10
2023-11-06T03:08:17.960Z,11.10
2023-11-06T03:10:45.669Z,11.00
2023-11-06T03:13:13.197Z,11.00
2023-11-06T03:15:40.659Z,10.90
2023-11-06T03:18:08.155Z,10.70
2023-11-06T03:20:35.831Z,10.70
2023-11-06T03:23:03.384Z,10.70
2023-11-06T03:25:30.781Z,10.70
2023-11-06T03:27:58.164Z,10.50
2023-11-06T03:30:25.545Z,10.40
2023-11-06T03:32:52.989Z,10.40
2023-11-06T03:35:21.039Z,10.40
2023-11-06T03:37:48.529Z,10.40
2023-11-06T03:40:15.983Z,10.30
2023-11-06T03:42:43.619Z,10.30
2023-11-06T03:45:11.104Z,10.20
2023-11-06T03:47:38.787Z,10.20
2023-11-06T03:50:06.994Z,10.20
2023-11-06T03:52:34.398Z,10.20
2023-11-06T03:55:01.746Z,10.10
2023-11-06T03:57:29.094Z,10.20
2023-11-06T03:59:56.463Z,10.20
2023-11-06T04:02:23.847Z,10.10
2023-11-06T04:04:52.051Z,10.10
2023-11-06T04:07:19.466Z,10.00
2023-11-06T04:09:47.208Z,10.00
2023-11-06T04:12:14.627Z,9.90
2023-11-06T04:14:42.003Z,9.70
2023-11-06T04:17:09.546Z,9.80
2023-11-06T04:19:36.921Z,9.70
2023-11-06T04:22:04.951Z,9.70
2023-11-06T04:24:32.281Z,9.60
2023-11-06T04:26:59.685Z,9.60
2023-11-06T04:29:27.212Z,9.60
2023-11-06T04:31:54.615Z,9.60
2023-11-06T04:34:22.006Z,9.70
2023-11-06T04:36:49.516Z,9.60
2023-11-06T04:39:18.211Z,9.60
2023-11-06T04:41:45.687Z,9.70
2023-11-06T04:44:13.179Z,9.80
2023-11-06T04:46:40.534Z,9.90
2023-11-06T04:49:07.994Z,9.90
2023-11-06T04:51:35.797Z,10.00
2023-11-06T04:54:03.407Z,10.00
2023-11-06T04:56:30.804Z,9.90
2023-11-06T04:58:58.934Z,9.90
2023-11-06T05:01:26.398Z,9.80
2023-11-06T05:03:54.597Z,9.70
2023-11-06T05:06:22.176Z,9.70
2023-11-06T05:08:49.588Z,9.60
2023-11-06T05:11:16.969Z,9.60
2023-11-06T05:13:44.357Z,9.70
2023-11-06T05:16:11.867Z,9.60
2023-11-06T05:18:39.338Z,9.60
2023-11-06T05:21:07.149Z,9.60
2023-11-06T05:23:34.920Z,9.60
2023-11-06T05:26:03.670Z,9.50
2023-11-06T05:28:31.578Z,9.40
2023-11-06T05:30:58.977Z,9.30
2023-11-06T05:33:26.402Z,9.20
2023-11-06T05:35:53.847Z,9.30
2023-11-06T05:38:21.229Z,9.30
2023-11-06T05:40:49.259Z,9.30
2023-11-06T05:43:16.616Z,9.30
2023-11-06T05:45:44.012Z,9.30
2023-11-06T05:48:11.440Z,9.30
2023-11-06T05:50:38.962Z,9.30
2023-11-06T05:53:06.407Z,9.30
2023-11-06T05:55:34.443Z,9.40
2023-11-06T05:58:02.397Z,9.60
2023-11-06T06:00:31.990Z,9.70
2023-11-06T06:03:02.839Z,9.80
2023-11-06T06:05:30.820Z,9.90
2023-11-06T06:07:58.876Z,9.90
2023-11-06T06:10:26.494Z,9.90
2023-11-06T06:12:54.211Z,9.90
2023-11-06T06:15:21.551Z,9.90
2023-11-06T06:17:49.037Z,10.10
2023-11-06T06:20:16.509Z,10.20
2023-11-06T06:22:43.946Z,10.20
2023-11-06T06:25:14.161Z,10.20
2023-11-06T06:27:41.635Z,10.20
2023-11-06T06:30:10.800Z,10.30
2023-11-06T06:32:38.420Z,10.30
2023-11-06T06:35:06.177Z,10.30
2023-11-06T06:37:33.594Z,10.40
2023-11-06T06:40:02.017Z,10.40
2023-11-06T06:42:29.477Z,10.50
2023-11-06T06:44:56.849Z,10.50
2023-11-06T06:47:24.236Z,10.60
2023-11-06T06:49:51.762Z,10.60
2023-11-06T06:52:19.125Z,10.70
2023-11-06T06:54:46.564Z,10.70
2023-11-06T06:57:14.242Z,10.80
2023-11-06T06:59:41.985Z,10.90
2023-11-06T07:02:09.588Z,11.00
2023-11-06T07:04:42.035Z,11.10
2023-11-06T07:07:09.697Z,11.10
2023-11-06T07:09:37.248Z,11.10
2023-11-06T07:12:05.391Z,11.20
2023-11-06T07:14:33.846Z,11.30
2023-11-06T07:17:05.997Z,11.50
2023-11-06T07:19:34.038Z,11.60
2023-11-06T07:22:02.762Z,11.80
2023-11-06T07:24:30.431Z,11.90
2023-11-06T07:26:59.087Z,12.00
2023-11-06T07:29:27.427Z,12.20
2023-11-06T07:31:55.221Z,12.30
2023-11-06T07:34:24.008Z,12.40
2023-11-06T07:36:51.936Z,12.50
2023-11-06T07:39:19.911Z,12.50
2023-11-06T07:41:47.493Z,12.50
2023-11-06T07:44:21.108Z,12.50
2023-11-06T07:46:49.720Z,12.50
2023-11-06T07:49:17.494Z,12.40
2023-11-06T07:51:44.991Z,12.40
2023-11-06T07:54:12.454Z,12.40
2023-11-06T07:56:40.039Z,12.40
2023-11-06T07:59:08.156Z,12.40
2023-11-06T08:01:35.784Z,12.50
2023-11-06T08:04:04.064Z,12.60
2023-11-06T08:06:31.627Z,12.90
2023-11-06T08:08:58.982Z,13.00
2023-11-06T08:11:26.831Z,13.10
2023-11-06T08:13:54.222Z,13.10
2023-11-06T08:16:21.595Z,13.30
2023-11-06T08:18:48.940Z,13.60
2023-11-06T08:21:16.341Z,13.80
2023-11-06T08:23:45.442Z,14.10
2023-11-06T08:26:12.903Z,14.40
2023-11-06T08:28:41.469Z,14.50
2023-11-06T08:31:10.936Z,14.60
2023-11-06T08:33:38.974Z,14.70
2023-11-06T08:36:07.273Z,14.80
2023-11-06T08:38:34.975Z,14.90
2023-11-06T08:41:03.712Z,14.90
2023-11-06T08:43:32.412Z,14.90
2023-11-06T08:46:02.107Z,14.80
2023-11-06T08:48:30.185Z,14.70
2023-11-06T08:55:53.542Z,15.10
2023-11-06T08:58:21.372Z,15.00
2023-11-06T09:00:49.046Z,14.90
2023-11-06T09:03:16.770Z,14.70
2023-11-06T09:05:44.357Z,14.50
2023-11-06T09:08:12.150Z,14.30
2023-11-06T09:10:40.283Z,14.00
2023-11-06T09:13:08.002Z,13.80
2023-11-06T09:15:39.404Z,13.90
2023-11-06T09:18:07.415Z,14.10
2023-11-06T09:20:35.317Z,14.00
2023-11-06T09:23:03.303Z,14.10
2023-11-06T21:16:37.495Z,9.00
2023-11-06T21:19:05.990Z,9.10
2023-11-06T21:21:34.498Z,9.20
2023-11-06T21:24:02.267Z,9.20
2023-11-06T21:26:31.002Z,9.30
2023-11-06T21:29:00.724Z,9.20
2023-11-06T21:36:27.099Z,9.10
2023-11-06T21:38:57.627Z,9.10
2023-11-06T21:41:25.939Z,9.00
2023-11-06T21:43:56.141Z,8.90
2023-11-06T21:46:24.382Z,8.80
2023-11-06T21:48:52.257Z,8.70
2023-11-06T21:51:22.060Z,8.60
2023-11-06T21:53:52.500Z,8.40
2023-11-06T21:56:22.466Z,8.30
2023-11-06T21:58:50.338Z,8.10
2023-11-06T22:01:19.657Z,8.00
2023-11-06T22:03:47.242Z,7.90
2023-11-06T22:06:14.755Z,7.90
2023-11-06T22:08:44.730Z,7.90
2023-11-06T22:11:12.161Z,7.90
2023-11-06T22:13:39.864Z,7.80
2023-11-06T22:16:08.380Z,7.70
2023-11-06T22:18:35.982Z,7.70
2023-11-06T22:21:05.916Z,7.70
2023-11-06T22:23:33.357Z,7.60
2023-11-06T22:26:00.872Z,7.60
2023-11-06T22:28:28.873Z,7.50
2023-11-06T22:30:56.298Z,7.50
2023-11-06T22:33:26.269Z,7.60
2023-11-06T22:35:56.356Z,7.50
2023-11-06T22:38:26.057Z,7.50
2023-11-06T22:40:55.685Z,7.40
2023-11-06T22:43:25.252Z,7.40
2023-11-06T22:45:52.695Z,7.40
2023-11-06T22:48:20.216Z,7.50
2023-11-06T22:50:47.758Z,7.50
2023-11-06T22:53:20.646Z,7.60
2023-11-06T22:55:48.196Z,7.70
2023-11-06T22:58:18.134Z,7.80
2023-11-06T23:00:47.805Z,8.00
2023-11-06T23:03:15.548Z,8.10
2023-11-06T23:05:45.777Z,8.10
2023-11-06T23:08:13.484Z,8.20
2023-11-06T23:10:40.947Z,8.20
2023-11-06T23:13:10.824Z,8.20
2023-11-06T23:15:40.755Z,8.20
2023-11-06T23:18:08.340Z,8.40
2023-11-06T23:20:36.109Z,8.50
2023-11-06T23:23:04.415Z,8.80
2023-11-06T23:25:38.275Z,9.00
2023-11-06T23:28:07.384Z,9.20
2023-11-06T23:30:37.334Z,9.30
2023-11-06T23:33:06.325Z,9.40
2023-11-06T23:35:36.958Z,9.40
2023-11-06T23:38:07.084Z,9.50
2023-11-06T23:40:34.922Z,9.50
2023-11-06T23:43:04.166Z,9.50
2023-11-06T23:45:31.913Z,9.60
2023-11-06T23:47:59.841Z,9.60
2023-11-06T23:50:27.372Z,9.60
2023-11-06T23:52:55.377Z,9.60
2023-11-06T23:55:24.986Z,9.70
2023-11-06T23:57:56.908Z,9.70
